Time;durP1;ratioP1;P1;durP2;ratioP2;P2;SDS_P1;SDS_P2;PMS_P1;PMS_P2;Temp;Humidity;BMP_temperature;BMP_pressure;BME280_temperature;BME280_humidity;BME280_pressure;Samples;Min_cycle;Max_cycle;Signal;HPM_P1;HPM_P2
2021/05/10 00:00:44;;;;;;;4.15;1.90;;;;;;;9.77;53.44;101014.50;5048641;28;20405;-21
2021/05/10 00:03:10;;;;;;;5.10;1.80;;;;;;;9.44;53.63;101004.34;5048504;28;20037;-22
2021/05/10 00:05:35;;;;;;;3.30;1.83;;;;;;;9.85;53.07;101022.38;5048551;28;20025;-22
2021/05/10 00:08:01;;;;;;;2.72;1.70;;;;;;;9.61;53.76;101027.03;5048574;28;20033;-22
2021/05/10 00:10:26;;;;;;;4.50;1.98;;;;;;;9.47;54.13;101022.59;5048256;28;20040;-22
2021/05/10 00:12:51;;;;;;;2.88;1.85;;;;;;;9.46;54.27;101028.94;5048248;28;20405;-22
2021/05/10 00:15:17;;;;;;;3.28;1.80;;;;;;;9.48;53.90;101032.25;5048392;28;20029;-22
2021/05/10 00:17:42;;;;;;;2.17;1.55;;;;;;;9.30;54.33;101018.53;5048224;28;20033;-19
2021/05/10 00:20:08;;;;;;;6.03;2.15;;;;;;;9.77;53.37;101025.16;5048618;28;20029;-21
2021/05/10 00:22:34;;;;;;;3.88;1.77;;;;;;;9.58;53.80;101022.09;5048299;28;20711;-21
2021/05/10 00:24:59;;;;;;;3.90;2.03;;;;;;;9.55;54.23;101017.16;5048076;28;20489;-22
2021/05/10 00:27:25;;;;;;;2.47;1.63;;;;;;;9.39;54.60;101015.53;5046883;28;20025;-22
2021/05/10 00:29:50;;;;;;;3.70;1.80;;;;;;;9.41;54.37;101018.03;5047967;28;20033;-22
2021/05/10 00:32:16;;;;;;;3.00;1.60;;;;;;;9.24;55.10;101028.88;5048276;28;20048;-22
2021/05/10 00:34:41;;;;;;;3.08;1.70;;;;;;;9.52;54.89;101022.03;5048286;28;20424;-21
2021/05/10 00:37:07;;;;;;;3.50;1.80;;;;;;;9.24;55.18;101028.88;5047900;28;20033;-22
2021/05/10 00:39:32;;;;;;;4.40;1.90;;;;;;;9.27;54.98;101005.56;5047961;28;20041;-22
2021/05/10 00:41:58;;;;;;;3.25;2.08;;;;;;;9.34;54.91;101017.13;5047647;28;20029;-22
2021/05/10 00:44:23;;;;;;;5.95;1.98;;;;;;;9.25;55.33;101006.59;5047545;28;20493;-22
2021/05/10 00:46:50;;;;;;;5.32;2.00;;;;;;;9.41;55.03;101026.00;5048103;28;20129;-21
2021/05/10 00:49:15;;;;;;;5.03;2.30;;;;;;;9.47;54.94;100998.63;5028552;28;20037;-22
2021/05/10 00:51:41;;;;;;;5.13;2.10;;;;;;;9.29;55.38;101016.84;5047798;28;20036;-21
2021/05/10 00:54:06;;;;;;;3.97;1.85;;;;;;;9.01;56.60;101012.19;5047930;28;20489;-19
2021/05/10 00:56:32;;;;;;;6.70;2.80;;;;;;;8.97;56.23;101002.94;5046389;28;20083;-22
2021/05/10 00:58:57;;;;;;;6.90;3.50;;;;;;;9.15;56.14;101018.53;5046295;28;20413;-22
2021/05/10 01:01:23;;;;;;;6.18;2.88;;;;;;;9.07;56.01;101003.47;5046385;28;20032;-22
2021/05/10 01:03:50;;;;;;;5.82;2.50;;;;;;;9.19;56.01;101011.81;5047540;28;20496;-22
2021/05/10 01:06:16;;;;;;;4.40;2.43;;;;;;;9.36;55.20;100999.94;5047254;28;20032;-22
2021/05/10 01:08:42;;;;;;;6.68;2.33;;;;;;;9.38;55.56;101015.75;5047447;28;20029;-22
2021/05/10 01:11:07;;;;;;;4.03;1.75;;;;;;;9.44;55.84;101009.66;5047157;28;20036;-22
2021/05/10 01:13:33;;;;;;;3.33;2.10;;;;;;;8.99;56.40;100991.13;5047517;28;20029;-22
2021/05/10 01:15:58;;;;;;;4.43;1.80;;;;;;;8.95;56.95;100999.63;5047313;28;20578;-22
2021/05/10 01:18:24;;;;;;;6.97;2.33;;;;;;;9.07;56.65;101000.81;5047164;28;20032;-22
2021/05/10 01:20:50;;;;;;;3.03;1.75;;;;;;;9.03;56.50;101015.50;5047442;28;20040;-22
2021/05/10 01:23:16;;;;;;;5.43;2.13;;;;;;;9.21;56.27;101007.13;5047196;28;20032;-22
2021/05/10 01:25:41;;;;;;;3.30;2.25;;;;;;;9.04;56.80;100998.53;5047432;28;20090;-21
2021/05/10 01:28:07;;;;;;;4.57;2.30;;;;;;;9.24;56.06;101001.44;5046098;28;20396;-22
2021/05/10 01:30:37;;;;;;;4.28;2.00;;;;;;;8.96;57.26;101010.09;5047122;28;20408;-21
2021/05/10 01:33:03;;;;;;;3.67;2.05;;;;;;;9.10;56.87;101007.63;5047536;28;20036;-22
2021/05/10 01:35:30;;;;;;;4.63;2.72;;;;;;;9.36;56.39;101004.47;5047215;28;20029;-22
2021/05/10 01:37:56;;;;;;;3.90;2.30;;;;;;;9.57;55.50;101007.13;5047024;28;20017;-21
2021/05/10 01:40:22;;;;;;;4.15;2.10;;;;;;;9.40;56.21;101009.22;5046738;28;20090;-21
2021/05/10 01:42:47;;;;;;;3.55;2.05;;;;;;;9.68;55.42;100999.66;5046859;28;20150;-22
2021/05/10 01:45:13;;;;;;;5.18;2.40;;;;;;;9.59;55.22;101018.41;5047300;28;20478;-19
2021/05/10 01:47:39;;;;;;;2.92;1.70;;;;;;;9.57;55.46;101009.78;5047428;28;20040;-21
2021/05/10 01:50:18;;;;;;;4.38;1.90;;;;;;;9.36;55.88;101013.25;5047352;28;20049;-22
2021/05/10 01:52:44;;;;;;;4.45;1.90;;;;;;;9.12;56.69;100990.47;5046869;28;20033;-22
2021/05/10 01:55:10;;;;;;;2.65;2.05;;;;;;;8.97;57.56;101010.91;5046875;28;20493;-24
2021/05/10 01:57:36;;;;;;;4.50;1.90;;;;;;;9.05;57.02;101001.03;5046732;28;20401;-22
2021/05/10 02:00:06;;;;;;;5.20;2.38;;;;;;;9.44;55.99;101013.16;5047974;28;20029;-22
2021/05/10 02:02:31;;;;;;;4.38;2.42;;;;;;;9.24;56.59;101010.25;5050773;28;20032;-22
2021/05/10 02:05:09;;;;;;;4.55;2.20;;;;;;;9.22;56.86;101022.91;5050757;28;20037;-22
2021/05/10 02:07:36;;;;;;;4.50;2.13;;;;;;;8.52;58.89;100999.47;5050810;28;20108;-21
2021/05/10 02:10:03;;;;;;;4.75;2.33;;;;;;;8.75;58.84;101018.84;5051051;28;20100;-22
2021/05/10 02:12:28;;;;;;;5.35;2.35;;;;;;;8.95;58.31;101020.94;5050699;28;20544;-22
2021/05/10 02:14:54;;;;;;;3.80;2.15;;;;;;;8.50;58.84;100997.00;5050490;28;20044;-21
2021/05/10 02:17:19;;;;;;;6.72;2.90;;;;;;;8.27;59.97;101018.28;5050496;28;20032;-22
2021/05/10 02:19:45;;;;;;;6.07;2.50;;;;;;;8.12;60.09;101025.41;5050463;28;20043;-22
2021/05/10 02:22:10;;;;;;;9.50;2.80;;;;;;;7.74;61.38;101022.69;5050259;28;20479;-19
2021/05/10 02:24:39;;;;;;;15.18;3.20;;;;;;;7.37;62.32;101017.09;5050630;28;20083;-22
2021/05/10 02:27:04;;;;;;;;;;;;;;;7.35;63.43;101036.88;5050817;28;20025;-22
2021/05/10 02:29:30;;;;;;;10.50;3.13;;;;;;;7.19;63.23;101020.03;5050493;28;20299;-22
2021/05/10 02:31:55;;;;;;;5.47;3.53;;;;;;;6.99;64.04;101022.28;5050221;28;20037;-23
2021/05/10 02:34:21;;;;;;;7.60;4.60;;;;;;;7.08;63.59;101023.06;5050012;28;20036;-22
2021/05/10 02:36:46;;;;;;;9.70;4.63;;;;;;;7.13;63.53;101046.41;5049874;28;20037;-22
2021/05/10 02:39:12;;;;;;;7.57;4.15;;;;;;;7.02;63.93;101034.38;5050190;28;20037;-22
2021/05/10 02:41:37;;;;;;;10.93;4.03;;;;;;;7.13;63.67;101047.25;5048945;28;20040;-22
2021/05/10 02:44:03;;;;;;;7.05;4.07;;;;;;;7.28;62.51;101046.53;5050007;28;20037;-22
2021/05/10 02:46:28;;;;;;;8.30;4.35;;;;;;;7.47;61.78;101048.75;5049970;28;20562;-20
2021/05/10 02:48:54;;;;;;;6.88;4.03;;;;;;;7.37;62.38;101042.81;5050222;28;20036;-21
2021/05/10 02:51:19;;;;;;;5.55;3.47;;;;;;;7.15;63.03;101055.03;5049803;28;20060;-22
2021/05/10 02:53:45;;;;;;;5.43;3.58;;;;;;;6.93;64.03;101032.75;5049855;28;20029;-22
2021/05/10 02:56:10;;;;;;;5.75;3.65;;;;;;;7.12;64.19;101055.38;5049661;28;20037;-21
2021/05/10 02:58:36;;;;;;;9.00;3.72;;;;;;;7.82;62.06;101055.31;5049761;28;20416;-23
2021/05/10 03:01:01;;;;;;;7.40;3.80;;;;;;;8.04;60.70;101040.41;5049737;28;20037;-22
2021/05/10 03:03:26;;;;;;;8.25;3.88;;;;;;;8.41;59.64;101052.06;5049513;28;20033;-23
2021/05/10 03:05:52;;;;;;;8.55;4.25;;;;;;;8.91;58.46;101057.72;5049284;28;20037;-23
2021/05/10 03:08:18;;;;;;;12.40;4.95;;;;;;;8.68;58.08;101036.53;5049371;28;20473;-23
2021/05/10 03:10:43;;;;;;;11.50;4.43;;;;;;;8.30;60.05;101060.47;5049370;28;20044;-22
2021/05/10 03:13:09;;;;;;;9.70;4.13;;;;;;;9.01;57.94;101057.44;5048910;28;20036;-22
2021/05/10 03:15:34;;;;;;;7.30;4.03;;;;;;;9.18;57.41;101056.25;5049373;28;20033;-22
2021/05/10 03:17:59;;;;;;;24.20;5.55;;;;;;;8.85;58.02;101064.59;5049197;28;20551;-22
2021/05/10 03:20:25;;;;;;;9.85;4.30;;;;;;;8.27;60.55;101049.34;5049138;28;20058;-20
2021/05/10 03:22:53;;;;;;;6.53;4.20;;;;;;;8.12;61.33;101051.97;5049524;28;20032;-21
2021/05/10 03:25:20;;;;;;;10.70;4.32;;;;;;;8.39;59.83;101063.88;5048513;28;20036;-19
2021/05/10 03:27:45;;;;;;;11.63;4.97;;;;;;;8.66;58.87;101065.13;5049180;28;20029;-20
2021/05/10 03:30:14;;;;;;;7.93;4.40;;;;;;;8.69;58.78;101069.28;5049270;28;20219;-22
2021/05/10 03:32:41;;;;;;;7.85;3.88;;;;;;;8.88;57.80;101057.25;5049368;28;20108;-19
2021/05/10 03:35:07;;;;;;;8.50;3.75;;;;;;;8.39;59.49;101039.94;5049194;28;20147;-19
2021/05/10 03:37:33;;;;;;;8.85;3.63;;;;;;;8.59;59.25;101045.59;5049266;28;20021;-21
2021/05/10 03:39:59;;;;;;;7.90;3.80;;;;;;;8.27;60.16;101044.84;5049466;28;20166;-22
2021/05/10 03:42:24;;;;;;;7.75;3.55;;;;;;;8.53;59.62;101078.22;5048791;28;20032;-23
2021/05/10 03:44:50;;;;;;;11.20;4.03;;;;;;;8.19;61.43;101061.72;5048950;28;20045;-22
2021/05/10 03:47:15;;;;;;;9.05;3.75;;;;;;;8.27;60.70;101071.44;5048683;28;20025;-22
2021/05/10 03:49:41;;;;;;;8.80;4.22;;;;;;;8.25;61.16;101068.97;5048607;28;20538;-23
2021/05/10 03:52:06;;;;;;;7.95;3.60;;;;;;;8.38;59.77;101078.19;5048910;28;20043;-22
2021/05/10 03:54:32;;;;;;;6.18;3.53;;;;;;;8.61;59.01;101055.03;5048433;28;20033;-21
2021/05/10 03:56:59;;;;;;;8.85;4.10;;;;;;;9.16;57.99;101071.56;5048437;28;20021;-22
2021/05/10 03:59:24;;;;;;;17.90;4.68;;;;;;;8.87;59.00;101072.41;5048455;28;20028;-22
2021/05/10 04:01:50;;;;;;;11.48;4.20;;;;;;;9.03;58.48;101077.53;5048442;28;20029;-22
2021/05/10 04:04:22;;;;;;;8.52;4.35;;;;;;;8.78;59.22;101071.66;5048088;28;20036;-22
2021/05/10 04:14:50;;;;;;;10.10;4.43;;;;;;;8.29;61.98;101071.25;5048510;28;20094;-23
2021/05/10 04:17:16;;;;;;;11.05;4.10;;;;;;;8.55;61.92;101085.00;5048497;28;20025;-23
2021/05/10 04:19:41;;;;;;;8.27;3.83;;;;;;;8.43;62.36;101079.28;5048362;28;20511;-22
2021/05/10 04:22:07;;;;;;;8.00;3.95;;;;;;;8.34;63.41;101067.06;5048148;28;20032;-22
2021/05/10 04:24:32;;;;;;;8.32;4.03;;;;;;;8.56;62.59;101077.84;5047697;28;20036;-22
2021/05/10 04:26:58;;;;;;;6.20;3.80;;;;;;;8.62;62.67;101079.78;5047973;28;20021;-21
2021/05/10 04:29:24;;;;;;;7.22;3.80;;;;;;;8.72;62.52;101069.72;5047939;28;20036;-23
2021/05/10 04:31:49;;;;;;;8.32;3.72;;;;;;;8.96;62.16;101081.13;5048181;28;20029;-20
2021/05/10 04:34:15;;;;;;;6.65;3.55;;;;;;;9.17;60.95;101089.19;5048120;28;20106;-21
2021/05/10 04:36:40;;;;;;;12.85;3.65;;;;;;;8.86;61.79;101086.69;5048218;28;20036;-22
2021/05/10 04:39:06;;;;;;;8.00;3.65;;;;;;;8.91;63.02;101091.47;5047848;28;20039;-22
2021/05/10 04:41:31;;;;;;;6.28;3.60;;;;;;;9.01;61.52;101089.34;5047779;28;20068;-22
2021/05/10 04:43:57;;;;;;;6.03;3.63;;;;;;;9.23;61.14;101093.78;5046275;28;20040;-22
2021/05/10 04:46:22;;;;;;;6.97;3.67;;;;;;;9.16;61.35;101068.91;5047666;28;20040;-22
2021/05/10 04:48:48;;;;;;;7.03;3.25;;;;;;;9.13;60.58;101090.56;5047800;28;20072;-23
2021/05/10 04:51:13;;;;;;;6.20;3.70;;;;;;;9.25;61.44;101096.25;5047504;28;20137;-23
2021/05/10 04:53:39;;;;;;;6.75;3.40;;;;;;;9.52;61.07;101099.25;5047593;28;20032;-22
2021/05/10 04:56:04;;;;;;;5.93;3.60;;;;;;;9.61;60.28;101101.63;5047396;28;20063;-22
2021/05/10 04:58:30;;;;;;;7.15;3.63;;;;;;;9.93;59.67;101099.53;5047242;28;20063;-22
2021/05/10 05:00:55;;;;;;;6.40;3.67;;;;;;;10.17;58.64;101102.81;5047627;28;20037;-22
2021/05/10 05:03:21;;;;;;;6.35;3.60;;;;;;;10.15;58.72;101097.66;5047409;28;20406;-21
2021/05/10 05:05:46;;;;;;;5.57;3.33;;;;;;;10.43;58.28;101100.41;5047764;28;20067;-21
2021/05/10 05:08:11;;;;;;;10.55;3.70;;;;;;;11.02;56.72;101112.53;5047885;28;20036;-20
2021/05/10 05:10:37;;;;;;;5.10;3.55;;;;;;;10.82;57.01;101099.06;5047592;28;20756;-22
2021/05/10 05:13:03;;;;;;;6.72;4.00;;;;;;;11.42;55.61;101106.56;5047196;28;20083;-22
2021/05/10 05:15:28;;;;;;;5.97;3.78;;;;;;;11.38;54.99;101102.66;5047456;28;20037;-22
2021/05/10 05:17:54;;;;;;;9.30;4.18;;;;;;;11.10;56.06;101113.41;5047179;28;20405;-22
2021/05/10 05:20:19;;;;;;;7.07;3.90;;;;;;;10.89;56.54;101109.81;5046955;28;20409;-21
2021/05/10 05:22:45;;;;;;;5.82;3.10;;;;;;;11.04;56.28;101102.50;5047247;28;20079;-22
2021/05/10 05:25:10;;;;;;;9.18;3.70;;;;;;;11.42;55.15;101102.09;5047423;28;20025;-21
2021/05/10 05:27:36;;;;;;;10.35;3.72;;;;;;;12.03;54.72;101111.97;5047033;28;20041;-24
2021/05/10 05:30:03;;;;;;;7.82;4.00;;;;;;;12.02;54.08;101104.16;5047323;28;20558;-24
2021/05/10 05:32:30;;;;;;;7.05;3.85;;;;;;;11.89;54.59;101094.25;5045703;28;20052;-24
2021/05/10 05:34:55;;;;;;;6.60;3.92;;;;;;;12.02;54.02;101104.16;5047924;28;20064;-24
2021/05/10 05:37:21;;;;;;;6.45;3.55;;;;;;;12.03;54.48;101098.59;5051184;28;20032;-23
2021/05/10 05:39:46;;;;;;;7.47;4.10;;;;;;;11.73;54.99;101115.94;5051106;28;20033;-24
2021/05/10 05:42:12;;;;;;;6.65;3.55;;;;;;;12.06;53.81;101111.53;5050820;28;20464;-24
2021/05/10 05:44:38;;;;;;;6.90;4.05;;;;;;;12.27;53.98;101089.16;5051085;28;20029;-22
2021/05/10 05:47:04;;;;;;;7.05;4.03;;;;;;;12.28;54.18;101108.72;5051222;28;20083;-22
2021/05/10 05:49:36;;;;;;;6.75;4.00;;;;;;;12.40;54.62;101109.75;5051081;28;20057;-23
2021/05/10 05:52:03;;;;;;;7.18;4.18;;;;;;;12.71;53.66;101104.78;5051104;28;20033;-22
2021/05/10 05:54:28;;;;;;;8.10;3.80;;;;;;;12.98;52.55;101108.25;5050664;28;20128;-21
2021/05/10 05:56:53;;;;;;;8.73;4.15;;;;;;;13.27;51.29;101101.59;5051013;28;20048;-22
2021/05/10 05:59:19;;;;;;;6.63;4.20;;;;;;;13.22;52.17;101112.94;5051036;28;20805;-21
2021/05/10 06:01:47;;;;;;;6.75;4.18;;;;;;;12.91;52.49;101102.06;5051278;28;20029;-20
2021/05/10 06:04:12;;;;;;;9.17;4.27;;;;;;;13.24;52.30;101099.34;5050646;28;20037;-21
2021/05/10 06:06:37;;;;;;;8.00;4.30;;;;;;;13.55;51.60;101098.63;5050851;28;20264;-22
2021/05/10 06:09:06;;;;;;;5.93;3.97;;;;;;;13.33;51.14;101094.59;5050546;28;20029;-22
2021/05/10 06:11:32;;;;;;;6.30;3.47;;;;;;;13.29;49.91;101098.69;5050902;28;20147;-22
2021/05/10 06:13:58;;;;;;;9.13;5.20;;;;;;;13.21;49.92;101097.06;5050906;28;20028;-22
2021/05/10 06:16:26;;;;;;;7.18;4.35;;;;;;;13.51;49.58;101092.03;5050231;28;20090;-22
2021/05/10 06:18:52;;;;;;;7.53;3.63;;;;;;;13.95;47.25;101095.72;5050540;28;20802;-22
2021/05/10 06:21:18;;;;;;;7.55;3.80;;;;;;;14.14;49.43;101098.47;5050557;28;20032;-22
2021/05/10 06:23:44;;;;;;;8.48;4.00;;;;;;;14.65;47.37;101097.50;5016263;28;20036;-22
2021/05/10 06:26:09;;;;;;;5.95;3.40;;;;;;;14.22;48.10;101092.84;5049072;28;20033;-22
2021/05/10 06:28:34;;;;;;;6.03;3.55;;;;;;;14.95;47.44;101088.72;5050055;28;20025;-22
2021/05/10 06:31:00;;;;;;;5.50;3.60;;;;;;;14.76;46.31;101083.34;5050346;28;20044;-22
2021/05/10 06:33:25;;;;;;;4.88;3.10;;;;;;;14.75;47.63;101076.34;5050286;28;20056;-22
2021/05/10 06:35:51;;;;;;;11.32;4.18;;;;;;;15.09;47.71;101082.16;5050018;28;20036;-22
2021/05/10 06:38:16;;;;;;;6.68;3.70;;;;;;;14.73;48.19;101078.44;5049688;28;20025;-21
2021/05/10 06:40:42;;;;;;;5.53;3.30;;;;;;;14.52;48.93;101070.75;5050155;28;20472;-22
2021/05/10 06:43:08;;;;;;;6.43;3.70;;;;;;;14.58;47.61;101069.88;5050102;28;20056;-22
2021/05/10 06:45:33;;;;;;;6.47;3.50;;;;;;;14.76;46.94;101080.66;5049991;28;20408;-23
2021/05/10 06:47:59;;;;;;;9.48;4.03;;;;;;;14.12;47.97;101060.31;5049935;28;20021;-20
2021/05/10 06:50:24;;;;;;;7.07;3.63;;;;;;;14.89;48.26;101070.81;5049873;28;20487;-21
2021/05/10 06:52:49;;;;;;;40.53;23.30;;;;;;;15.01;46.59;101069.84;5049878;28;20894;-22
2021/05/10 06:55:16;;;;;;;7.57;3.78;;;;;;;14.95;46.56;101076.13;5049637;28;20495;-22
2021/05/10 06:57:41;;;;;;;6.53;3.78;;;;;;;15.43;45.35;101075.38;5049761;28;20500;-22
2021/05/10 07:00:08;;;;;;;6.63;3.72;;;;;;;15.29;46.88;101055.06;5049520;28;20053;-23
2021/05/10 07:02:34;;;;;;;6.82;3.47;;;;;;;15.36;47.20;101071.09;5049398;28;20024;-22
2021/05/10 07:04:59;;;;;;;5.10;3.28;;;;;;;15.48;44.88;101069.28;5049545;28;20504;-22
2021/05/10 07:07:24;;;;;;;5.22;3.25;;;;;;;15.37;44.73;101072.75;5049581;28;20032;-22
2021/05/10 07:09:50;;;;;;;8.27;3.75;;;;;;;15.07;46.41;101052.84;5049446;28;20475;-22
2021/05/10 07:12:15;;;;;;;5.50;3.67;;;;;;;15.77;45.00;101065.03;5049167;28;20036;-22
2021/05/10 07:14:41;;;;;;;5.95;3.40;;;;;;;16.14;43.58;101055.97;5048273;28;20044;-22
2021/05/10 07:17:07;;;;;;;5.28;3.63;;;;;;;15.82;44.57;101048.19;5049454;28;20493;-21
2021/05/10 07:19:32;;;;;;;5.35;3.88;;;;;;;15.73;43.40;101057.63;5049714;28;20040;-21
2021/05/10 07:21:58;;;;;;;6.03;3.03;;;;;;;15.63;43.29;101061.66;5049010;28;20033;-22
2021/05/10 07:24:23;;;;;;;5.07;2.90;;;;;;;15.99;42.91;101054.53;5049164;28;20044;-22
2021/05/10 07:26:49;;;;;;;4.75;2.40;;;;;;;15.91;38.19;101054.88;5048189;28;20037;-21
2021/05/10 07:29:14;;;;;;;5.57;2.50;;;;;;;16.29;37.12;101050.97;5049603;28;20491;-21
2021/05/10 07:31:40;;;;;;;4.38;2.40;;;;;;;16.57;36.97;101046.75;5049143;28;20032;-21
2021/05/10 07:34:06;;;;;;;3.80;2.42;;;;;;;16.39;38.29;101040.44;5048969;28;20029;-22
2021/05/10 07:36:31;;;;;;;3.28;2.10;;;;;;;16.61;37.93;101039.84;5048386;28;20051;-21
2021/05/10 07:38:56;;;;;;;3.20;2.10;;;;;;;16.79;36.71;101053.19;5048840;28;20029;-22
2021/05/10 07:41:22;;;;;;;7.82;3.05;;;;;;;16.89;37.57;101041.03;5049009;28;20405;-22
2021/05/10 07:43:47;;;;;;;5.30;2.20;;;;;;;16.44;37.71;101035.16;5049058;28;20045;-22
2021/05/10 07:46:13;;;;;;;3.65;2.20;;;;;;;17.03;37.37;101043.22;5048355;28;20036;-21
2021/05/10 07:48:38;;;;;;;5.40;2.65;;;;;;;17.54;36.13;101043.41;5048814;28;20408;-21
2021/05/10 07:51:04;;;;;;;6.72;2.63;;;;;;;18.06;36.36;101026.25;5048893;28;20064;-22
2021/05/10 07:53:30;;;;;;;7.00;2.53;;;;;;;18.15;34.54;101032.09;5048533;28;20044;-21
2021/05/10 07:55:55;;;;;;;4.30;2.33;;;;;;;18.42;36.01;101033.03;5048908;28;20527;-21
2021/05/10 07:58:24;;;;;;;6.30;2.45;;;;;;;18.28;37.05;101010.94;5047766;28;20073;-22
2021/05/10 08:00:56;;;;;;;9.18;2.67;;;;;;;17.81;36.64;101021.22;5048531;28;20029;-21
2021/05/10 08:03:23;;;;;;;5.45;2.83;;;;;;;18.01;35.08;101008.09;5048426;28;20463;-22
2021/05/10 08:05:49;;;;;;;5.30;2.80;;;;;;;18.47;37.30;101025.03;5048132;28;20114;-22
2021/05/10 08:08:16;;;;;;;5.50;2.75;;;;;;;18.75;36.23;101031.31;5048118;28;20037;-21
2021/05/10 08:10:45;;;;;;;8.13;3.33;;;;;;;18.73;36.01;101028.06;5047110;28;20032;-21
2021/05/10 08:13:11;;;;;;;7.55;3.30;;;;;;;18.54;35.09;101024.03;5048107;28;20040;-22
2021/05/10 08:15:37;;;;;;;7.57;3.22;;;;;;;18.02;33.24;101006.22;5048173;28;20413;-22
2021/05/10 08:18:02;;;;;;;7.03;3.78;;;;;;;17.56;34.47;101027.81;5048127;28;20041;-21
2021/05/10 08:20:28;;;;;;;6.43;3.50;;;;;;;17.81;34.86;100999.63;5047778;28;20025;-21
2021/05/10 08:22:53;;;;;;;8.13;3.47;;;;;;;18.15;33.41;101021.28;5048480;28;20039;-21
2021/05/10 08:25:19;;;;;;;7.55;3.90;;;;;;;18.47;34.27;100999.91;5048129;28;20025;-21
2021/05/10 08:27:44;;;;;;;7.72;3.70;;;;;;;18.08;33.59;101005.22;5047994;28;20025;-22
2021/05/10 08:30:11;;;;;;;7.15;3.25;;;;;;;17.82;35.39;101007.50;5046782;28;20044;-18
2021/05/10 08:32:37;;;;;;;6.65;3.45;;;;;;;17.75;34.82;101017.63;5047999;28;20043;-20
2021/05/10 08:35:03;;;;;;;5.85;2.53;;;;;;;17.68;35.80;100996.19;5048129;28;20037;-22
2021/05/10 08:37:29;;;;;;;9.27;2.80;;;;;;;17.57;34.97;100998.94;5048086;28;20029;-21
2021/05/10 08:39:55;;;;;;;6.88;2.72;;;;;;;18.23;33.15;101007.38;5047808;28;20044;-22
2021/05/10 08:42:21;;;;;;;7.57;2.63;;;;;;;18.71;32.77;100991.56;5046349;28;20378;-21
2021/05/10 08:44:46;;;;;;;6.32;2.40;;;;;;;19.17;31.75;101001.06;5047723;28;20048;-22
2021/05/10 08:47:11;;;;;;;6.45;2.40;;;;;;;19.75;32.07;101008.72;5047492;28;20040;-21
2021/05/10 08:49:37;;;;;;;6.82;2.33;;;;;;;20.29;31.14;100986.94;5047267;28;20509;-21
2021/05/10 08:52:03;;;;;;;3.88;1.83;;;;;;;20.51;31.32;100991.38;5047659;28;20044;-21
2021/05/10 08:54:31;;;;;;;4.25;2.38;;;;;;;20.72;30.04;101004.00;5047260;28;20029;-21
2021/05/10 08:56:56;;;;;;;4.25;2.20;;;;;;;20.18;31.55;100982.50;5046091;28;20021;-21
2021/05/10 08:59:22;;;;;;;4.53;2.33;;;;;;;20.41;31.32;100987.56;5047436;28;20043;-21
2021/05/10 09:02:01;;;;;;;4.97;2.20;;;;;;;20.09;31.50;100997.63;5047469;28;20039;-24
2021/05/10 09:04:34;;;;;;;5.53;2.38;;;;;;;20.08;32.06;100988.66;5047379;28;20032;-21
2021/05/10 09:07:13;;;;;;;7.53;3.58;;;;;;;20.76;32.08;100979.88;5047695;28;20025;-21
2021/05/10 09:10:11;;;;;;;6.63;2.28;;;;;;;20.48;31.44;100987.31;5046316;28;20028;-21
2021/05/10 09:12:49;;;;;;;4.28;1.95;;;;;;;21.17;30.79;100986.28;5047051;28;20032;-21
2021/05/10 09:15:19;;;;;;;7.75;2.25;;;;;;;20.95;30.15;100963.97;5047559;28;20039;-21
2021/05/10 09:17:46;;;;;;;4.43;1.80;;;;;;;20.73;29.23;100962.25;5047431;28;20025;-20
2021/05/10 09:20:16;;;;;;;4.65;1.80;;;;;;;21.10;30.90;100961.28;5047408;28;20071;-20
2021/05/10 09:22:46;;;;;;;3.70;1.88;;;;;;;21.46;30.10;100964.13;5047081;28;20043;-21
2021/05/10 09:25:12;;;;;;;3.47;1.67;;;;;;;21.17;29.46;100967.28;5046984;28;20036;-21
2021/05/10 09:27:37;;;;;;;3.65;1.50;;;;;;;21.05;30.09;100958.59;5046177;28;20021;-20
2021/05/10 09:30:17;;;;;;;9.85;2.10;;;;;;;21.64;29.03;100947.28;5047128;28;20041;-20
2021/05/10 09:32:46;;;;;;;3.78;1.50;;;;;;;21.77;26.89;100926.13;5046939;28;20331;-21
2021/05/10 09:35:22;;;;;;;3.00;1.55;;;;;;;22.15;27.06;100937.44;5045813;28;20048;-21
2021/05/10 09:37:56;;;;;;;2.47;1.52;;;;;;;22.46;26.06;100932.78;5047115;28;20028;-21
2021/05/10 09:40:21;;;;;;;1.73;1.30;;;;;;;22.75;27.72;100945.72;5046859;28;20492;-21
2021/05/10 09:42:48;;;;;;;2.55;1.38;;;;;;;22.78;27.58;100931.56;5047009;28;20029;-21
2021/05/10 09:45:34;;;;;;;3.17;1.52;;;;;;;22.73;27.20;100934.31;5046706;28;20037;-21
2021/05/10 09:48:23;;;;;;;3.65;1.23;;;;;;;22.93;26.52;100922.53;5045514;28;20033;-21
2021/05/10 09:51:02;;;;;;;4.28;1.38;;;;;;;22.59;26.89;100934.09;5045593;28;20052;-21
2021/05/10 09:53:57;;;;;;;4.22;1.55;;;;;;;22.84;27.52;100923.13;5047012;28;20037;-20
2021/05/10 09:58:58;;;;;;;3.10;1.10;;;;;;;22.14;27.75;100930.41;5047075;28;20029;-21
2021/05/10 10:01:24;;;;;;;2.55;1.38;;;;;;;22.64;26.66;100925.94;5047067;28;20040;-21
2021/05/10 10:03:51;;;;;;;2.53;1.30;;;;;;;21.97;28.07;100915.22;5046842;28;20033;-21
2021/05/10 10:06:17;;;;;;;1.88;1.40;;;;;;;22.22;28.12;100902.69;5046433;28;20124;-21
2021/05/10 10:08:47;;;;;;;2.17;1.48;;;;;;;22.64;27.41;100901.47;5046594;28;20504;-21
2021/05/10 10:11:17;;;;;;;4.22;1.45;;;;;;;22.53;28.52;100910.75;5046622;28;20108;-21
2021/05/10 10:13:44;;;;;;;5.00;1.50;;;;;;;22.71;29.78;100896.53;5047059;28;20937;-21
2021/05/10 10:16:10;;;;;;;2.75;1.40;;;;;;;22.94;29.22;100903.19;5046843;28;20033;-21
2021/05/10 10:18:39;;;;;;;2.45;1.33;;;;;;;22.77;28.43;100889.97;5046504;28;20033;-21
2021/05/10 10:21:06;;;;;;;5.13;1.52;;;;;;;22.84;28.91;100890.47;5047828;28;20025;-20
2021/05/10 10:23:32;;;;;;;4.40;1.35;;;;;;;23.32;27.52;100891.81;5050528;28;20035;-21
2021/05/10 10:25:58;;;;;;;9.98;2.35;;;;;;;23.10;26.81;100884.09;5032671;28;20033;-21
2021/05/10 10:28:25;;;;;;;4.13;1.60;;;;;;;23.74;27.55;100884.91;5050082;28;20561;-21
2021/05/10 10:31:02;;;;;;;2.63;1.30;;;;;;;22.57;28.41;100868.31;5050225;28;20033;-21
2021/05/10 10:33:35;;;;;;;2.10;1.33;;;;;;;22.22;27.95;100862.72;5033664;28;20104;-20
2021/05/10 10:36:01;;;;;;;2.50;1.25;;;;;;;22.61;28.50;100844.94;5048718;28;20056;-21
2021/05/10 10:38:34;;;;;;;2.28;1.30;;;;;;;22.89;26.75;100862.44;5048514;28;20409;-21
2021/05/10 10:41:22;;;;;;;4.32;1.42;;;;;;;23.05;27.27;100846.84;5048789;28;20772;-21
2021/05/10 10:43:48;;;;;;;2.95;1.40;;;;;;;23.95;26.26;100850.97;5048793;28;20028;-21
2021/05/10 10:46:23;;;;;;;3.20;1.50;;;;;;;23.76;26.30;100850.03;5049571;28;20052;-20
2021/05/10 10:48:50;;;;;;;1.63;1.30;;;;;;;23.41;26.50;100852.00;5050172;28;20079;-21
2021/05/10 10:51:16;;;;;;;4.45;1.17;;;;;;;22.95;26.16;100827.88;5049625;28;20136;-20
2021/05/10 10:54:00;;;;;;;3.05;1.35;;;;;;;23.40;27.37;100843.03;5049865;28;20037;-21
2021/05/10 10:56:49;;;;;;;3.80;1.42;;;;;;;23.29;26.38;100835.22;5048523;28;20128;-21
2021/05/10 10:59:37;;;;;;;4.25;1.20;;;;;;;24.27;26.17;100830.41;5050087;28;20037;-20
2021/05/10 11:02:18;;;;;;;2.92;1.20;;;;;;;23.71;25.42;100826.41;5050226;28;20032;-21
2021/05/10 11:04:43;;;;;;;4.68;1.40;;;;;;;23.85;25.88;100808.28;5049504;28;20489;-21
2021/05/10 11:07:09;;;;;;;2.35;1.38;;;;;;;24.36;24.74;100808.78;5049921;28;20035;-21
2021/05/10 11:09:55;;;;;;;3.58;1.40;;;;;;;24.57;24.20;100810.13;5049934;28;20037;-21
2021/05/10 11:12:52;;;;;;;3.28;1.50;;;;;;;23.79;24.30;100812.16;5047703;28;20408;-21
2021/05/10 11:15:32;;;;;;;3.92;1.30;;;;;;;24.42;24.15;100808.41;5049226;28;20457;-21
2021/05/10 11:17:58;;;;;;;4.85;1.65;;;;;;;25.13;24.08;100808.47;5049395;28;20068;-21
2021/05/10 11:20:44;;;;;;;4.90;1.80;;;;;;;24.56;24.05;100803.06;5049031;28;20167;-21
2021/05/10 11:23:25;;;;;;;2.38;1.50;;;;;;;24.20;24.24;100799.97;5049115;28;20025;-20
2021/05/10 11:25:51;;;;;;;3.72;1.80;;;;;;;24.70;24.86;100797.66;5049324;28;20121;-21
2021/05/10 11:28:26;;;;;;;4.82;1.50;;;;;;;25.43;23.51;100798.13;5049311;28;20133;-20
2021/05/10 11:31:01;;;;;;;6.25;1.58;;;;;;;25.60;22.96;100792.06;5049201;28;20108;-21
2021/05/10 11:33:51;;;;;;;2.53;1.30;;;;;;;24.78;23.10;100786.06;5048223;28;20037;-21
2021/05/10 11:36:31;;;;;;;10.52;2.00;;;;;;;24.67;23.35;100792.81;5048634;28;20112;-21
2021/05/10 11:39:06;;;;;;;3.90;1.67;;;;;;;24.71;22.36;100776.66;5048738;28;20389;-21
2021/05/10 11:41:35;;;;;;;3.65;1.33;;;;;;;25.80;20.53;100785.41;5049156;28;20033;-21